Time;durP1;ratioP1;P1;durP2;ratioP2;P2;SDS_P1;SDS_P2;PMS_P1;PMS_P2;Temp;Humidity;BMP_temperature;BMP_pressure;BME280_temperature;BME280_humidity;BME280_pressure;Samples;Min_cycle;Max_cycle;Signal;HPM_P1;HPM_P2
2023/04/13 00:00:37;;;;;;;2.40;1.90;;;;;;;7.67;nan;-24031.09;4994861;28;20552;-70
2023/04/13 00:03:03;;;;;;;3.60;2.10;;;;;;;7.83;nan;-24035.63;4997612;28;20181;-67
2023/04/13 00:05:30;;;;;;;2.43;2.07;;;;;;;7.64;nan;-24030.38;4995281;28;20185;-66
2023/04/13 00:07:55;;;;;;;2.90;2.30;;;;;;;7.52;nan;-24027.13;4995032;28;20169;-65
2023/04/13 00:10:22;;;;;;;2.97;2.23;;;;;;;7.24;nan;-24019.03;4994410;28;20255;-64
2023/04/13 00:12:48;;;;;;;4.50;2.20;;;;;;;7.15;nan;-24016.50;4995101;28;20180;-66
2023/04/13 00:15:16;;;;;;;3.80;2.13;;;;;;;7.26;nan;-24019.75;4994841;28;20196;-65
2023/04/13 00:17:42;;;;;;;2.97;2.00;;;;;;;7.32;nan;-24021.47;4994493;28;20180;-68
2023/04/13 00:20:14;;;;;;;2.03;1.90;;;;;;;7.37;nan;-24022.88;4994846;28;20549;-68
2023/04/13 00:22:41;;;;;;;2.57;2.00;;;;;;;7.21;nan;-24018.34;4994740;28;20605;-68
2023/04/13 00:25:07;;;;;;;2.80;2.10;;;;;;;7.31;nan;-24021.03;4994720;28;20169;-67
2023/04/13 00:27:32;;;;;;;3.37;2.33;;;;;;;7.41;nan;-24023.88;4994371;28;20279;-66
2023/04/13 00:29:57;;;;;;;4.50;2.77;;;;;;;7.06;nan;-24014.22;4994688;28;20189;-68
2023/04/13 00:32:24;;;;;;;3.27;2.63;;;;;;;7.46;nan;-24025.28;4994531;28;20209;-66
2023/04/13 00:34:50;;;;;;;4.67;2.80;;;;;;;6.74;nan;-24005.16;4994353;28;20172;-69
2023/04/13 00:37:17;;;;;;;4.30;2.30;;;;;;;6.83;nan;-24007.69;4994613;28;20169;-67
2023/04/13 00:39:45;;;;;;;4.97;2.67;;;;;;;6.65;nan;-24002.72;4988040;28;20176;-64
2023/04/13 00:42:11;;;;;;;5.33;2.60;;;;;;;6.86;nan;-24008.56;4978403;28;20243;-64
2023/04/13 00:44:37;;;;;;;3.13;2.40;;;;;;;7.15;nan;-24016.50;4993541;28;20191;-66
2023/04/13 00:47:04;;;;;;;3.93;2.73;;;;;;;6.92;nan;-24010.25;4993977;28;20229;-68
2023/04/13 00:49:32;;;;;;;5.47;2.20;;;;;;;6.84;nan;-24008.00;4994067;28;20181;-68
2023/04/13 00:52:00;;;;;;;4.97;2.27;;;;;;;7.15;nan;-24016.50;4994003;28;20261;-68
2023/04/13 00:54:28;;;;;;;3.07;2.50;;;;;;;7.04;nan;-24013.66;4994472;28;20199;-64
2023/04/13 00:56:54;;;;;;;2.80;2.20;;;;;;;7.10;nan;-24015.34;4994101;28;20308;-68
2023/04/13 00:59:19;;;;;;;4.13;2.07;;;;;;;6.82;nan;-24007.41;4994186;28;20204;-68
2023/04/13 01:01:49;;;;;;;2.13;1.90;;;;;;;6.76;nan;-24005.56;4993780;28;20266;-68
2023/04/13 01:04:20;;;;;;;3.50;2.30;;;;;;;6.75;nan;-24005.44;4996987;28;20203;-66
2023/04/13 01:07:07;;;;;;;2.63;2.37;;;;;;;7.02;nan;-24013.09;4994037;28;20693;-65
2023/04/13 01:09:43;;;;;;;3.03;2.20;;;;;;;6.93;nan;-24010.53;4994038;28;20184;-66
2023/04/13 01:12:28;;;;;;;3.17;2.03;;;;;;;6.97;nan;-24011.53;4993332;28;20200;-69
2023/04/13 01:15:04;;;;;;;3.00;2.33;;;;;;;7.04;nan;-24013.50;4993875;28;20177;-69
2023/04/13 01:17:32;;;;;;;2.13;1.80;;;;;;;6.79;nan;-24006.44;4993603;28;20177;-65
2023/04/13 01:20:14;;;;;;;2.37;2.13;;;;;;;6.70;nan;-24004.00;4987181;28;20184;-67
2023/04/13 01:23:00;;;;;;;2.27;1.90;;;;;;;6.83;nan;-24007.69;4976418;28;20239;-63
2023/04/13 01:25:49;;;;;;;2.47;2.27;;;;;;;7.05;nan;-24013.81;4993763;28;20164;-68
2023/04/13 01:28:16;;;;;;;2.77;2.07;;;;;;;7.01;nan;-24012.81;4993441;28;20580;-68
2023/04/13 01:30:43;;;;;;;6.03;1.93;;;;;;;6.66;nan;-24002.88;4993276;28;20259;-69
2023/04/13 01:33:10;;;;;;;2.63;1.90;;;;;;;6.93;nan;-24010.41;4993254;28;20201;-65
2023/04/13 01:35:37;;;;;;;7.57;2.30;;;;;;;6.82;nan;-24007.28;4993111;28;20592;-67
2023/04/13 01:38:05;;;;;;;3.53;2.47;;;;;;;6.95;nan;-24010.97;4993332;28;20172;-67
2023/04/13 01:40:35;;;;;;;3.23;2.17;;;;;;;6.91;nan;-24009.97;4993473;28;20157;-67
2023/04/13 01:43:01;;;;;;;2.83;2.17;;;;;;;6.94;nan;-24010.81;4992033;28;20570;-67
2023/04/13 01:45:44;;;;;;;3.10;2.13;;;;;;;7.06;nan;-24014.09;4992969;28;20215;-67
2023/04/13 01:48:33;;;;;;;3.53;2.70;;;;;;;6.94;nan;-24010.81;4993101;28;21011;-68
2023/04/13 01:51:15;;;;;;;2.70;1.97;;;;;;;6.84;nan;-24007.84;4993432;28;20200;-65
2023/04/13 01:53:43;;;;;;;3.57;2.53;;;;;;;6.71;nan;-24004.16;4992941;28;20188;-67
2023/04/13 01:56:11;;;;;;;3.63;2.50;;;;;;;6.48;nan;-23997.75;4992447;28;20169;-66
2023/04/13 01:58:39;;;;;;;2.30;2.07;;;;;;;6.39;nan;-23995.34;4986678;28;20195;-66
2023/04/13 02:01:06;;;;;;;5.93;2.27;;;;;;;6.18;nan;-23989.38;4976045;28;20277;-68
2023/04/13 02:03:37;;;;;;;5.83;2.87;;;;;;;5.99;nan;-23984.13;4992718;28;20651;-68
2023/04/13 02:06:03;;;;;;;2.60;2.00;;;;;;;6.29;nan;-23992.38;4997107;28;20338;-67
2023/04/13 02:08:30;;;;;;;2.83;2.10;;;;;;;6.08;nan;-23986.56;4992391;28;20260;-66
2023/04/13 02:10:56;;;;;;;2.90;2.30;;;;;;;6.06;nan;-23985.97;4992665;28;20639;-66
2023/04/13 02:13:22;;;;;;;2.40;2.10;;;;;;;5.81;nan;-23978.88;4992905;28;20242;-70
2023/04/13 02:15:47;;;;;;;2.80;2.43;;;;;;;6.17;nan;-23989.25;4992604;28;20275;-65
2023/04/13 02:18:13;;;;;;;3.43;2.33;;;;;;;5.80;nan;-23978.72;4992538;28;20173;-65
2023/04/13 02:20:43;;;;;;;2.33;1.97;;;;;;;5.92;nan;-23982.00;4992599;28;20231;-66
2023/04/13 02:23:14;;;;;;;3.07;2.10;;;;;;;5.74;nan;-23977.16;4992396;28;20235;-66
2023/04/13 02:25:45;;;;;;;2.40;1.93;;;;;;;6.03;nan;-23985.13;4992623;28;20176;-68
2023/04/13 02:28:10;;;;;;;3.20;1.87;;;;;;;6.07;nan;-23986.41;4992442;28;20183;-68
2023/04/13 02:30:36;;;;;;;2.93;2.13;;;;;;;6.03;nan;-23985.13;4992232;28;20676;-68
2023/04/13 02:33:02;;;;;;;2.30;2.10;;;;;;;6.02;nan;-23984.97;4992567;28;20204;-65
2023/04/13 02:35:27;;;;;;;2.30;1.90;;;;;;;5.67;nan;-23975.19;4992125;28;20180;-64
2023/04/13 02:37:54;;;;;;;2.87;2.10;;;;;;;5.58;nan;-23972.63;4992247;28;20705;-66
2023/04/13 02:40:20;;;;;;;1.90;1.80;;;;;;;6.09;nan;-23986.97;4992380;28;20161;-65
2023/04/13 02:42:47;;;;;;;2.37;1.90;;;;;;;5.74;nan;-23977.03;4992538;28;20585;-67
2023/04/13 02:45:14;;;;;;;4.07;2.10;;;;;;;6.01;nan;-23984.56;4992416;28;20168;-66
2023/04/13 02:47:39;;;;;;;1.93;1.73;;;;;;;6.18;nan;-23989.38;4992319;28;20219;-69
2023/04/13 02:50:05;;;;;;;2.80;1.90;;;;;;;6.26;nan;-23991.66;4992114;28;20176;-66
2023/04/13 02:52:31;;;;;;;2.17;1.97;;;;;;;6.57;nan;-24000.47;4992254;28;20565;-68
2023/04/13 02:54:57;;;;;;;2.30;2.10;;;;;;;6.18;nan;-23989.38;4992437;28;20270;-65
2023/04/13 02:57:24;;;;;;;3.10;2.23;;;;;;;6.40;nan;-23995.50;4992277;28;20596;-66
2023/04/13 02:59:50;;;;;;;3.93;2.27;;;;;;;6.66;nan;-24003.00;4985812;28;20203;-67
2023/04/13 03:02:16;;;;;;;3.17;2.13;;;;;;;6.89;nan;-24009.41;4979799;28;20185;-68
2023/04/13 03:04:43;;;;;;;4.13;2.17;;;;;;;6.62;nan;-24001.88;4987688;28;20604;-66
2023/04/13 03:07:09;;;;;;;3.40;2.20;;;;;;;6.81;nan;-24007.00;4995589;28;20165;-66
2023/04/13 03:09:39;;;;;;;2.93;2.00;;;;;;;6.44;nan;-23996.78;4991881;28;20629;-64
2023/04/13 03:12:06;;;;;;;5.30;2.17;;;;;;;6.74;nan;-24005.16;4992149;28;20679;-68
2023/04/13 03:14:32;;;;;;;8.43;2.00;;;;;;;6.69;nan;-24003.72;4991980;28;20200;-64
2023/04/13 03:16:58;;;;;;;2.80;2.33;;;;;;;6.75;nan;-24005.44;4986803;28;20200;-64
2023/04/13 03:19:27;;;;;;;3.50;2.70;;;;;;;6.38;nan;-23994.94;4989221;28;20188;-67
2023/04/13 03:21:53;;;;;;;5.90;2.40;;;;;;;6.31;nan;-23992.94;4972715;28;20256;-64
2023/04/13 03:24:18;;;;;;;4.40;2.33;;;;;;;6.38;nan;-23995.06;4977485;28;20272;-66
2023/04/13 03:26:44;;;;;;;2.70;2.00;;;;;;;6.12;nan;-23987.81;4992283;28;20187;-65
2023/04/13 03:29:09;;;;;;;3.50;2.50;;;;;;;5.86;nan;-23980.28;4991718;28;20169;-66
2023/04/13 03:31:34;;;;;;;3.10;2.27;;;;;;;6.08;nan;-23986.56;4991699;28;20196;-68
2023/04/13 03:34:00;;;;;;;3.27;2.33;;;;;;;6.05;nan;-23985.84;4991916;28;20585;-66
2023/04/13 03:36:28;;;;;;;3.37;2.80;;;;;;;6.00;nan;-23984.28;4991643;28;20346;-66
2023/04/13 03:38:55;;;;;;;5.80;2.67;;;;;;;6.19;nan;-23989.69;4991729;28;20624;-67
2023/04/13 03:41:21;;;;;;;2.67;2.27;;;;;;;6.30;nan;-23992.66;4991758;28;20684;-69
2023/04/13 03:43:47;;;;;;;4.40;2.80;;;;;;;6.06;nan;-23986.13;4991938;28;20555;-65
2023/04/13 03:46:12;;;;;;;3.50;2.30;;;;;;;5.95;nan;-23983.00;4994938;28;20188;-66
2023/04/13 03:48:41;;;;;;;2.67;2.07;;;;;;;5.92;nan;-23982.16;4995174;28;20221;-68
2023/04/13 03:51:07;;;;;;;2.87;2.17;;;;;;;6.19;nan;-23989.69;4995521;28;20235;-67
2023/04/13 03:53:36;;;;;;;2.70;2.03;;;;;;;6.48;nan;-23997.91;4986967;28;20656;-69
2023/04/13 03:56:02;;;;;;;9.43;2.57;;;;;;;7.10;nan;-24015.34;4980233;28;20189;-66
2023/04/13 03:58:28;;;;;;;5.07;1.97;;;;;;;7.04;nan;-24013.66;4994953;28;20246;-67
2023/04/13 04:00:53;;;;;;;4.03;2.40;;;;;;;7.30;nan;-24020.75;4995004;28;20192;-67
2023/04/13 04:03:20;;;;;;;2.13;1.93;;;;;;;7.35;nan;-24022.16;4994635;28;20173;-68
2023/04/13 04:05:46;;;;;;;3.00;2.07;;;;;;;7.04;nan;-24013.66;4995023;28;20172;-68
2023/04/13 04:08:11;;;;;;;2.73;2.10;;;;;;;7.38;nan;-24023.00;4997715;28;20181;-66
2023/04/13 04:10:37;;;;;;;2.90;2.00;;;;;;;8.79;nan;-24062.66;4994542;28;20268;-68
2023/04/13 04:13:02;;;;;;;3.67;2.37;;;;;;;9.93;nan;-24094.34;4993649;28;20193;-67
2023/04/13 04:15:27;;;;;;;2.30;2.10;;;;;;;10.86;nan;-24120.44;4994394;28;20181;-66
2023/04/13 04:17:53;;;;;;;5.80;2.37;;;;;;;11.21;nan;-24130.03;4994716;28;20180;-67
2023/04/13 04:20:18;;;;;;;2.93;2.03;;;;;;;11.55;nan;-24139.47;4994495;28;20545;-67
2023/04/13 04:22:48;;;;;;;2.20;2.00;;;;;;;11.82;nan;-24147.09;4994673;28;20184;-67
2023/04/13 04:25:26;;;;;;;3.83;2.10;;;;;;;11.79;nan;-24146.25;4994368;28;20177;-70
2023/04/13 04:27:56;;;;;;;5.83;2.50;;;;;;;11.58;nan;-24140.47;4991348;28;20179;-64
2023/04/13 04:30:23;;;;;;;4.73;2.57;;;;;;;11.51;nan;-24138.50;4983041;28;20248;-66
2023/04/13 04:32:51;;;;;;;3.37;2.50;;;;;;;11.37;nan;-24134.53;4985494;28;20177;-67
2023/04/13 04:35:19;;;;;;;4.73;2.77;;;;;;;10.88;nan;-24120.88;4994316;28;20184;-67
2023/04/13 04:37:48;;;;;;;6.90;2.60;;;;;;;10.55;nan;-24111.69;4994237;28;20180;-67
2023/04/13 04:40:14;;;;;;;4.20;2.70;;;;;;;10.21;nan;-24102.25;4993866;28;20173;-65
2023/04/13 04:42:41;;;;;;;4.10;2.53;;;;;;;9.88;nan;-24092.91;4993859;28;20176;-66
2023/04/13 04:45:07;;;;;;;2.80;2.60;;;;;;;9.52;nan;-24083.03;4994264;28;20672;-67
2023/04/13 04:47:40;;;;;;;7.50;2.60;;;;;;;8.95;nan;-24067.06;4994109;28;20225;-66
2023/04/13 04:50:11;;;;;;;5.20;2.53;;;;;;;8.83;nan;-24063.81;4994109;28;20637;-67
2023/04/13 04:52:37;;;;;;;2.73;2.30;;;;;;;8.46;nan;-24053.34;4993996;28;20204;-65
2023/04/13 04:55:05;;;;;;;3.97;2.80;;;;;;;8.78;nan;-24062.25;4993487;28;20530;-65
2023/04/13 04:57:31;;;;;;;4.17;2.57;;;;;;;8.61;nan;-24057.56;4992951;28;20183;-67
2023/04/13 04:59:57;;;;;;;6.47;2.53;;;;;;;8.49;nan;-24054.19;4992786;28;20726;-65
2023/04/13 05:02:22;;;;;;;5.93;2.77;;;;;;;8.34;nan;-24050.06;4993331;28;20177;-67
2023/04/13 05:04:47;;;;;;;5.60;2.50;;;;;;;8.39;nan;-24051.50;4993655;28;20659;-66
2023/04/13 05:07:16;;;;;;;3.63;2.90;;;;;;;8.32;nan;-24049.38;4996690;28;20633;-66
2023/04/13 05:09:42;;;;;;;4.20;2.60;;;;;;;8.50;nan;-24054.31;4989884;28;20530;-68
2023/04/13 05:12:08;;;;;;;7.87;3.27;;;;;;;8.62;nan;-24057.72;4982513;28;20684;-67
2023/04/13 05:14:34;;;;;;;4.70;2.53;;;;;;;8.62;nan;-24057.72;4983382;28;20180;-65
2023/04/13 05:17:00;;;;;;;3.93;2.83;;;;;;;8.99;nan;-24068.19;4984038;28;20161;-65
2023/04/13 05:19:26;;;;;;;3.73;2.77;;;;;;;8.83;nan;-24063.66;4981990;28;20943;-68
2023/04/13 05:21:51;;;;;;;5.30;2.63;;;;;;;8.91;nan;-24065.78;4983369;28;20173;-66
2023/04/13 05:24:17;;;;;;;5.00;3.00;;;;;;;9.31;nan;-24077.09;4973426;28;20181;-68
2023/04/13 05:26:42;;;;;;;4.20;2.70;;;;;;;9.44;nan;-24080.78;4975944;28;20235;-67
2023/04/13 05:29:08;;;;;;;5.47;3.63;;;;;;;9.51;nan;-24082.75;4982153;28;20181;-66
2023/04/13 05:31:34;;;;;;;3.17;2.37;;;;;;;9.40;nan;-24079.50;4984297;28;20208;-68
2023/04/13 05:34:00;;;;;;;4.60;2.50;;;;;;;9.66;nan;-24086.84;4993306;28;20256;-69
2023/04/13 05:36:27;;;;;;;4.43;2.43;;;;;;;9.73;nan;-24088.97;4993256;28;20282;-65
2023/04/13 05:38:55;;;;;;;2.70;2.13;;;;;;;10.08;nan;-24098.72;4992967;28;20177;-68
2023/04/13 05:41:21;;;;;;;2.80;2.10;;;;;;;10.33;nan;-24105.63;4993005;28;20176;-68
2023/04/13 05:43:48;;;;;;;5.33;2.60;;;;;;;9.96;nan;-24095.19;4992662;28;20176;-64
2023/04/13 05:46:14;;;;;;;2.40;2.20;;;;;;;10.62;nan;-24113.81;4992489;28;20184;-64
2023/04/13 05:48:42;;;;;;;4.07;2.80;;;;;;;10.81;nan;-24119.03;4991449;28;20231;-68
2023/04/13 05:51:09;;;;;;;3.33;2.30;;;;;;;10.92;nan;-24122.00;4993093;28;20554;-65
2023/04/13 05:53:35;;;;;;;3.15;2.67;;;;;;;10.70;nan;-24115.78;4992336;28;20177;-67
2023/04/13 05:56:00;;;;;;;4.20;2.45;;;;;;;11.06;nan;-24126.09;4992891;28;20225;-67
2023/04/13 05:58:26;;;;;;;3.53;2.22;;;;;;;10.98;nan;-24123.69;4991473;28;20188;-68
2023/04/13 06:00:52;;;;;;;3.60;2.85;;;;;;;11.32;nan;-24133.13;4993055;28;20228;-65
2023/04/13 06:03:19;;;;;;;4.00;2.35;;;;;;;11.06;nan;-24125.94;4992661;28;20687;-68
2023/04/13 06:05:44;;;;;;;3.60;2.67;;;;;;;11.30;nan;-24132.72;4995596;28;20620;-65
2023/04/13 06:08:10;;;;;;;5.38;3.20;;;;;;;11.63;nan;-24141.88;4992470;28;20236;-68
2023/04/13 06:10:36;;;;;;;3.55;2.70;;;;;;;11.88;nan;-24148.78;4992759;28;20180;-66
2023/04/13 06:13:02;;;;;;;3.53;2.35;;;;;;;12.16;nan;-24156.53;4992470;28;20545;-67
2023/04/13 06:15:28;;;;;;;5.60;3.47;;;;;;;12.14;nan;-24155.97;4992369;28;20180;-63
2023/04/13 06:17:53;;;;;;;8.77;4.30;;;;;;;12.14;nan;-24156.09;4992538;28;20173;-68
2023/04/13 06:20:20;;;;;;;18.48;7.45;;;;;;;12.52;nan;-24166.66;4992460;28;20180;-68
2023/04/13 06:22:45;;;;;;;22.42;8.68;;;;;;;12.61;nan;-24169.19;4986120;28;20200;-65
2023/04/13 06:25:12;;;;;;;20.52;8.13;;;;;;;12.91;nan;-24177.47;4982758;28;20632;-68
2023/04/13 06:27:37;;;;;;;19.15;7.68;;;;;;;12.53;nan;-24166.94;4990049;28;20185;-67
2023/04/13 06:30:05;;;;;;;19.95;6.68;;;;;;;12.55;nan;-24167.50;4992381;28;20245;-68
2023/04/13 06:32:31;;;;;;;22.52;6.68;;;;;;;13.10;nan;-24182.81;4992129;28;20267;-68
2023/04/13 06:34:57;;;;;;;15.32;6.30;;;;;;;13.20;nan;-24185.63;4992336;28;20172;-67
2023/04/13 06:37:23;;;;;;;12.50;5.75;;;;;;;13.14;nan;-24183.81;4992412;28;20168;-67
2023/04/13 06:39:48;;;;;;;14.60;6.15;;;;;;;13.37;nan;-24190.25;4981651;28;20185;-67
2023/04/13 06:42:14;;;;;;;9.07;4.63;;;;;;;13.58;nan;-24196.16;4972859;28;20177;-65
2023/04/13 06:44:40;;;;;;;6.88;3.90;;;;;;;13.57;nan;-24195.75;4971634;28;20188;-65
2023/04/13 06:47:05;;;;;;;6.70;3.13;;;;;;;13.54;nan;-24194.91;4972458;28;20328;-63
2023/04/13 06:49:35;;;;;;;6.07;3.10;;;;;;;14.04;nan;-24208.81;4972458;28;20182;-68
2023/04/13 06:52:00;;;;;;;5.63;3.22;;;;;;;14.14;nan;-24211.75;4972546;28;20209;-66
2023/04/13 06:54:25;;;;;;;8.98;3.28;;;;;;;14.21;nan;-24213.56;4972720;28;20177;-65
2023/04/13 06:56:51;;;;;;;5.05;3.08;;;;;;;14.35;nan;-24217.34;4972826;28;20265;-67
2023/04/13 06:59:16;;;;;;;5.20;2.83;;;;;;;14.35;nan;-24217.50;4972458;28;20208;-66
2023/04/13 07:01:42;;;;;;;4.55;2.50;;;;;;;14.40;nan;-24218.75;4972515;28;20527;-67
2023/04/13 07:04:07;;;;;;;6.38;2.47;;;;;;;14.33;nan;-24216.81;4972550;28;20294;-65
2023/04/13 07:06:33;;;;;;;4.32;2.58;;;;;;;14.39;nan;-24218.63;4973107;28;20177;-59
2023/04/13 07:08:59;;;;;;;3.53;2.65;;;;;;;15.02;nan;-24236.00;4971467;28;20256;-62
2023/04/13 07:11:25;;;;;;;2.97;2.00;;;;;;;14.64;nan;-24225.34;4972962;28;20201;-57
2023/04/13 07:13:51;;;;;;;2.97;1.95;;;;;;;15.15;nan;-24239.50;4972488;28;20217;-58
2023/04/13 07:16:16;;;;;;;2.50;2.00;;;;;;;14.99;nan;-24235.31;4972650;28;20201;-58
2023/04/13 07:18:41;;;;;;;1.83;1.50;;;;;;;15.53;nan;-24250.16;4972946;28;20219;-57
2023/04/13 07:21:07;;;;;;;2.15;1.63;;;;;;;12.19;nan;-24157.38;4975697;28;20276;-58
2023/04/13 07:23:33;;;;;;;2.10;1.60;;;;;;;15.54;nan;-24250.44;4976563;28;20209;-59
2023/04/13 07:25:58;;;;;;;1.40;1.30;;;;;;;15.72;nan;-24255.34;4976403;28;20640;-58
2023/04/13 07:28:24;;;;;;;1.83;1.60;;;;;;;15.66;nan;-24253.66;4975919;28;20248;-56
2023/04/13 07:30:51;;;;;;;1.60;1.45;;;;;;;16.04;nan;-24264.16;4976059;28;20252;-55
2023/04/13 07:33:16;;;;;;;2.47;1.55;;;;;;;15.78;nan;-24257.16;4976507;28;20169;-63
2023/04/13 07:35:41;;;;;;;3.33;1.60;;;;;;;16.15;nan;-24267.38;4976245;28;20225;-64
2023/04/13 07:38:07;;;;;;;2.22;1.50;;;;;;;15.81;nan;-24258.00;4976624;28;20192;-62
2023/04/13 07:40:34;;;;;;;2.03;1.52;;;;;;;15.93;nan;-24261.22;4976572;28;20177;-61
2023/04/13 07:43:00;;;;;;;1.88;1.63;;;;;;;16.13;nan;-24266.66;4976427;28;20173;-62
2023/04/13 07:45:29;;;;;;;2.20;1.58;;;;;;;16.06;nan;-24264.72;4976455;28;20169;-62
2023/04/13 07:47:55;;;;;;;1.63;1.33;;;;;;;16.28;nan;-24270.84;4975756;28;20231;-61
2023/04/13 07:50:20;;;;;;;9.20;1.50;;;;;;;16.59;nan;-24279.53;4984620;28;20554;-63
2023/04/13 07:52:46;;;;;;;1.77;1.42;;;;;;;16.63;nan;-24280.66;4980036;28;20692;-62
2023/04/13 07:55:11;;;;;;;1.85;1.45;;;;;;;16.61;nan;-24280.09;4976428;28;20621;-63
2023/04/13 07:57:37;;;;;;;1.52;1.38;;;;;;;16.87;nan;-24287.06;4976294;28;20180;-63
2023/04/13 08:00:07;;;;;;;1.73;1.60;;;;;;;16.82;nan;-24285.81;4976072;28;20168;-67
2023/04/13 08:02:32;;;;;;;1.75;1.42;;;;;;;17.34;nan;-24300.06;4975895;28;20252;-64
2023/04/13 08:04:58;;;;;;;4.10;1.63;;;;;;;17.48;nan;-24304.09;4975006;28;20268;-62
2023/04/13 08:07:23;;;;;;;1.63;1.48;;;;;;;17.33;nan;-24299.91;4976535;28;20162;-64
2023/04/13 08:09:51;;;;;;;2.17;1.70;;;;;;;17.48;nan;-24304.09;4975852;28;20177;-64
2023/04/13 08:12:17;;;;;;;2.88;1.42;;;;;;;17.39;nan;-24301.59;4975358;28;20205;-63
2023/04/13 08:14:43;;;;;;;1.70;1.60;;;;;;;17.30;nan;-24299.09;4973989;28;20184;-65
2023/04/13 08:17:09;;;;;;;1.50;1.40;;;;;;;16.79;nan;-24284.97;4975204;28;20256;-66
2023/04/13 08:19:35;;;;;;;2.42;1.40;;;;;;;17.20;nan;-24296.28;4975327;28;20177;-64
2023/04/13 08:22:00;;;;;;;1.30;1.20;;;;;;;17.36;nan;-24300.75;4975344;28;20173;-63
2023/04/13 08:24:26;;;;;;;1.30;1.20;;;;;;;17.56;nan;-24306.19;4975241;28;20228;-64
2023/04/13 08:26:53;;;;;;;2.42;1.67;;;;;;;17.11;nan;-24293.78;4974819;28;20564;-63
2023/04/13 08:29:19;;;;;;;1.60;1.50;;;;;;;17.52;nan;-24305.22;4974512;28;20988;-65
2023/04/13 08:31:45;;;;;;;3.15;1.52;;;;;;;17.69;nan;-24309.69;4974816;28;20233;-64
2023/04/13 08:34:12;;;;;;;1.73;1.40;;;;;;;17.94;nan;-24316.66;4985826;28;20216;-65
2023/04/13 08:36:38;;;;;;;1.95;1.40;;;;;;;17.95;nan;-24316.94;4980230;28;20180;-63
2023/04/13 08:39:09;;;;;;;1.60;1.48;;;;;;;18.13;nan;-24321.81;4994097;28;20236;-63
2023/04/13 08:41:39;;;;;;;2.20;1.45;;;;;;;17.82;nan;-24313.47;4994379;28;20263;-66
2023/04/13 08:44:06;;;;;;;2.10;1.50;;;;;;;18.18;nan;-24323.34;4992382;28;20192;-66
2023/04/13 08:46:33;;;;;;;2.17;1.70;;;;;;;18.29;nan;-24326.41;4983374;28;20177;-63
2023/04/13 08:49:02;;;;;;;3.03;1.52;;;;;;;18.33;nan;-24327.53;4989949;28;20204;-63
2023/04/13 08:51:30;;;;;;;1.60;1.30;;;;;;;18.49;nan;-24331.84;4994092;28;20695;-65
2023/04/13 08:53:57;;;;;;;1.95;1.42;;;;;;;18.21;nan;-24324.19;4987409;28;20185;-64
2023/04/13 08:56:23;;;;;;;1.95;1.30;;;;;;;18.34;nan;-24327.69;4983598;28;20173;-65
2023/04/13 08:58:52;;;;;;;1.50;1.40;;;;;;;18.31;nan;-24326.84;4982794;28;20193;-65
2023/04/13 09:01:19;;;;;;;1.60;1.30;;;;;;;18.35;nan;-24327.94;4980808;28;20188;-62
2023/04/13 09:03:53;;;;;;;2.63;1.50;;;;;;;18.38;nan;-24328.78;4978448;28;20185;-63
2023/04/13 09:06:32;;;;;;;1.77;1.35;;;;;;;18.28;nan;-24326.00;4992481;28;20281;-65
2023/04/13 09:08:58;;;;;;;1.98;1.40;;;;;;;18.27;nan;-24325.72;4992612;28;20181;-64
2023/04/13 09:11:24;;;;;;;1.80;1.50;;;;;;;18.68;nan;-24337.16;4984738;28;20209;-64
2023/04/13 09:13:50;;;;;;;1.73;1.30;;;;;;;18.66;nan;-24336.44;4979425;28;20669;-65
2023/04/13 09:16:17;;;;;;;1.40;1.30;;;;;;;18.76;nan;-24339.38;4985336;28;20181;-63
2023/04/13 09:18:49;;;;;;;2.92;1.35;;;;;;;18.92;nan;-24343.69;4980370;28;20184;-64
2023/04/13 09:21:15;;;;;;;2.00;1.20;;;;;;;;;;4993898;28;20184;-62
2023/04/13 09:23:51;;;;;;;2.03;1.42;;;;;;;;;;4988696;28;20563;-66
2023/04/13 09:26:16;;;;;;;3.13;1.70;;;;;;;;;;4983100;28;20184;-64
2023/04/13 09:28:48;;;;;;;3.58;1.20;;;;;;;18.63;nan;-24335.75;4979156;28;20196;-63
2023/04/13 09:31:14;;;;;;;1.77;1.30;;;;;;;18.34;nan;-24327.81;4981795;28;20583;-64
2023/04/13 09:33:44;;;;;;;1.52;1.20;;;;;;;18.72;nan;-24338.13;4983502;28;20192;-64
2023/04/13 09:36:16;;;;;;;2.38;1.45;;;;;;;18.90;nan;-24343.13;4981438;28;20224;-64
2023/04/13 09:39:02;;;;;;;2.58;1.60;;;;;;;;;;4993350;28;20177;-63
2023/04/13 09:41:33;;;;;;;1.98;1.65;;;;;;;;;;4993057;28;20324;-63
2023/04/13 09:43:59;;;;;;;2.65;1.70;;;;;;;;;;4993077;28;20185;-66
2023/04/13 09:46:25;;;;;;;1.75;1.42;;;;;;;19.44;nan;-24357.88;4993515;28;20169;-64
2023/04/13 09:49:01;;;;;;;2.33;1.52;;;;;;;19.38;nan;-24356.50;4993144;28;20165;-64
2023/04/13 09:51:38;;;;;;;1.92;1.48;;;;;;;19.71;nan;-24365.53;4993531;28;20277;-64
2023/04/13 09:54:04;;;;;;;2.25;1.65;;;;;;;19.48;nan;-24359.00;4993555;28;20176;-64
2023/04/13 09:56:41;;;;;;;1.80;1.40;;;;;;;19.76;nan;-24366.94;4993465;28;20187;-64
2023/04/13 09:59:09;;;;;;;3.58;1.70;;;;;;;19.76;nan;-24366.78;4993373;28;20165;-62
2023/04/13 10:01:36;;;;;;;3.38;1.38;;;;;;;;;;4993700;28;20180;-64
2023/04/13 10:04:05;;;;;;;1.83;1.27;;;;;;;19.87;nan;-24369.72;4993628;28;20195;-65
2023/04/13 10:06:37;;;;;;;2.67;1.38;;;;;;;19.66;nan;-24364.16;4993232;28;20180;-64
2023/04/13 10:09:02;;;;;;;1.48;1.38;;;;;;;19.06;nan;-24347.44;4993183;28;20173;-64
2023/04/13 10:11:29;;;;;;;1.80;1.45;;;;;;;19.08;nan;-24348.16;4993237;28;20375;-62
2023/04/13 10:14:01;;;;;;;2.53;1.55;;;;;;;19.47;nan;-24358.84;4992702;28;20161;-65
2023/04/13 10:16:32;;;;;;;3.58;1.42;;;;;;;19.69;nan;-24364.97;4993358;28;20157;-64
2023/04/13 10:19:17;;;;;;;2.75;1.50;;;;;;;19.60;nan;-24362.47;4993011;28;20656;-64
2023/04/13 10:21:44;;;;;;;1.90;1.27;;;;;;;19.44;nan;-24357.88;4992679;28;20176;-63
2023/04/13 10:24:11;;;;;;;1.95;1.45;;;;;;;19.30;nan;-24354.13;4992889;28;20202;-62
2023/04/13 10:26:37;;;;;;;5.90;1.60;;;;;;;19.52;nan;-24360.13;4992654;28;20180;-64
2023/04/13 10:29:03;;;;;;;1.85;1.45;;;;;;;19.40;nan;-24357.06;4992746;28;20165;-64
2023/04/13 10:31:36;;;;;;;1.95;1.45;;;;;;;19.42;nan;-24357.59;4992887;28;20209;-64
2023/04/13 10:34:03;;;;;;;2.50;1.60;;;;;;;19.67;nan;-24364.28;4992671;28;20533;-63
2023/04/13 10:36:43;;;;;;;1.73;1.40;;;;;;;19.53;nan;-24360.53;4992568;28;20175;-62
2023/04/13 10:39:23;;;;;;;2.08;1.50;;;;;;;19.44;nan;-24358.03;4992640;28;20171;-63
2023/04/13 10:42:06;;;;;;;3.15;1.90;;;;;;;19.78;nan;-24367.34;4992758;28;20185;-64
2023/04/13 10:44:40;;;;;;;2.47;1.50;;;;;;;20.40;nan;-24384.44;4992885;28;20172;-64
2023/04/13 10:47:07;;;;;;;3.58;1.52;;;;;;;20.64;nan;-24390.97;4992188;28;20224;-65
2023/04/13 10:49:33;;;;;;;4.95;1.70;;;;;;;20.57;nan;-24389.16;4992419;28;20204;-62
2023/04/13 10:51:58;;;;;;;1.88;1.35;;;;;;;20.93;nan;-24398.88;4992650;28;20699;-63
2023/04/13 10:54:28;;;;;;;2.97;1.58;;;;;;;20.51;nan;-24387.50;4993178;28;20153;-64
2023/04/13 10:57:02;;;;;;;1.60;1.30;;;;;;;20.39;nan;-24384.03;4996774;28;20168;-64
2023/04/13 10:59:44;;;;;;;3.08;1.75;;;;;;;19.96;nan;-24372.34;4996785;28;20181;-65
2023/04/13 11:02:13;;;;;;;1.42;1.27;;;;;;;20.22;nan;-24379.56;4995374;28;20185;-65
2023/04/13 11:04:40;;;;;;;2.85;1.50;;;;;;;20.80;nan;-24395.25;4996597;28;20179;-66
2023/04/13 11:07:10;;;;;;;1.60;1.33;;;;;;;20.95;nan;-24399.56;4996908;28;20270;-65
2023/04/13 11:09:37;;;;;;;2.55;1.35;;;;;;;20.73;nan;-24393.44;4996607;28;20194;-64
2023/04/13 11:12:06;;;;;;;1.70;1.40;;;;;;;20.50;nan;-24387.22;4996120;28;20203;-63
2023/04/13 11:14:31;;;;;;;1.65;1.55;;;;;;;20.36;nan;-24383.31;4996206;28;20243;-64
2023/04/13 11:16:57;;;;;;;2.60;1.35;;;;;;;20.70;nan;-24392.63;4996383;28;20275;-65
2023/04/13 11:19:22;;;;;;;2.83;2.20;;;;;;;20.82;nan;-24395.81;4996529;28;20169;-64
2023/04/13 11:21:56;;;;;;;2.45;1.65;;;;;;;20.92;nan;-24398.72;4996441;28;20254;-66
2023/04/13 11:24:26;;;;;;;2.47;1.73;;;;;;;20.92;nan;-24398.72;4996226;28;20168;-65
2023/04/13 11:26:53;;;;;;;2.53;1.40;;;;;;;21.26;nan;-24407.88;4995201;28;20177;-65
2023/04/13 11:29:20;;;;;;;1.95;1.58;;;;;;;21.20;nan;-24406.22;4995639;28;20661;-65
2023/04/13 11:31:47;;;;;;;2.90;1.70;;;;;;;21.30;nan;-24409.00;4996176;28;20203;-65
2023/04/13 11:34:21;;;;;;;2.42;1.70;;;;;;;21.52;nan;-24415.22;4996213;28;20169;-62
2023/04/13 11:36:48;;;;;;;3.13;1.52;;;;;;;21.30;nan;-24409.13;4995809;28;20172;-65
2023/04/13 11:39:14;;;;;;;2.92;1.80;;;;;;;21.36;nan;-24410.78;4995620;28;20326;-64
2023/04/13 11:41:40;;;;;;;2.67;1.80;;;;;;;21.47;nan;-24413.84;4995904;28;20243;-62
2023/04/13 11:44:06;;;;;;;6.70;1.60;;;;;;;21.03;nan;-24401.78;4995797;28;20184;-63
2023/04/13 11:46:32;;;;;;;2.38;1.73;;;;;;;21.10;nan;-24403.72;4995514;28;20165;-62
2023/04/13 11:48:58;;;;;;;3.33;1.83;;;;;;;20.99;nan;-24400.66;4995676;28;20169;-63
2023/04/13 11:51:24;;;;;;;2.25;1.58;;;;;;;20.86;nan;-24397.06;4995330;28;20268;-63